createdAt,value
2023-04-10T00:02:16.816Z,44.50
2023-04-10T00:07:21.870Z,44.50
2023-04-10T00:12:27.618Z,45.75
2023-04-10T00:17:32.623Z,43.25
2023-04-10T00:22:37.567Z,44.25
2023-04-10T00:27:42.584Z,42.00
2023-04-10T00:32:47.451Z,40.75
2023-04-10T00:37:52.965Z,44.75
2023-04-10T00:42:58.206Z,42.50
2023-04-10T00:48:03.272Z,43.00
2023-04-10T00:53:07.997Z,41.25
2023-04-10T00:58:16.170Z,41.50
2023-04-10T01:03:23.382Z,41.25
2023-04-10T01:08:41.320Z,40.75
2023-04-10T01:13:55.333Z,42.25
2023-04-10T01:19:04.552Z,42.25
2023-04-10T01:24:27.493Z,39.00
2023-04-10T01:29:34.554Z,41.25
2023-04-10T01:34:42.568Z,44.50
2023-04-10T01:39:49.525Z,44.75
2023-04-10T01:44:55.841Z,44.50
2023-04-10T01:50:01.261Z,44.00
2023-04-10T01:55:07.967Z,46.50
2023-04-10T02:00:20.518Z,52.75
2023-04-10T02:05:26.974Z,56.25
2023-04-10T02:10:47.267Z,55.25
2023-04-10T02:15:52.545Z,58.25
2023-04-10T02:20:57.354Z,57.00
2023-04-10T02:26:08.642Z,59.00
2023-04-10T02:31:13.054Z,57.50
2023-04-10T02:36:17.337Z,62.33
2023-04-10T02:41:22.170Z,60.00
2023-04-10T02:46:27.754Z,54.25
2023-04-10T02:51:32.437Z,51.00
2023-04-10T02:56:37.059Z,54.75
2023-04-10T03:01:42.008Z,52.75
2023-04-10T03:06:46.821Z,51.25
2023-04-10T03:11:51.161Z,53.00
2023-04-10T03:16:55.899Z,50.00
2023-04-10T03:22:00.319Z,52.00
2023-04-10T03:27:05.874Z,53.75
2023-04-10T03:32:11.110Z,54.25
2023-04-10T03:37:15.557Z,54.50
2023-04-10T03:42:20.033Z,49.50
2023-04-10T03:47:24.808Z,49.75
2023-04-10T03:52:30.160Z,46.25
2023-04-10T03:57:34.714Z,50.25
2023-04-10T04:02:42.265Z,48.75
2023-04-10T04:07:48.790Z,44.75
2023-04-10T04:13:09.585Z,48.00
2023-04-10T04:18:34.513Z,44.50
2023-04-10T04:23:57.184Z,43.25
2023-04-10T04:29:08.645Z,44.00
2023-04-10T04:34:25.138Z,41.50
2023-04-10T04:39:47.525Z,38.75
2023-04-10T04:45:17.898Z,42.00
2023-04-10T04:50:58.743Z,38.50
2023-04-10T04:56:25.299Z,40.00
2023-04-10T05:02:01.105Z,39.25
2023-04-10T05:07:31.570Z,40.00
2023-04-10T05:12:50.950Z,36.50
2023-04-10T05:18:10.648Z,35.00
2023-04-10T05:23:33.292Z,34.25
2023-04-10T05:29:12.269Z,33.75
2023-04-10T05:34:34.006Z,36.00
2023-04-10T05:39:46.863Z,32.25
2023-04-10T05:45:11.349Z,32.50
2023-04-10T05:50:30.364Z,33.00
2023-04-10T05:55:52.962Z,33.00
2023-04-10T06:01:35.779Z,33.00
2023-04-10T06:06:41.184Z,34.00
2023-04-10T06:11:47.713Z,31.00
2023-04-10T06:16:55.538Z,29.50
2023-04-10T06:22:00.738Z,29.00
2023-04-10T06:27:07.093Z,29.00
2023-04-10T06:32:12.708Z,29.00
2023-04-10T06:37:17.699Z,28.25
2023-04-10T06:42:23.362Z,28.00
2023-04-10T06:47:41.853Z,29.50
2023-04-10T06:52:54.515Z,27.75
2023-04-10T06:57:58.636Z,27.75
2023-04-10T07:03:06.048Z,29.00
2023-04-10T07:08:11.382Z,27.00
2023-04-10T07:13:15.679Z,27.50
2023-04-10T07:18:19.912Z,27.50
2023-04-10T07:23:24.337Z,27.00
2023-04-10T07:28:28.784Z,26.00
2023-04-10T07:33:33.223Z,27.00
2023-04-10T07:38:37.851Z,25.25
2023-04-10T07:43:43.053Z,24.50
2023-04-10T07:48:49.927Z,25.25
2023-04-10T07:53:54.912Z,25.50
2023-04-10T07:59:03.497Z,23.25
2023-04-10T08:04:08.206Z,24.25
2023-04-10T08:09:12.982Z,24.00
2023-04-10T08:14:18.758Z,25.25
2023-04-10T08:19:23.620Z,26.00
2023-04-10T08:24:29.804Z,23.50
2023-04-10T08:29:34.681Z,25.00
2023-04-10T08:34:39.505Z,23.50
2023-04-10T08:39:44.578Z,25.00
2023-04-10T08:44:50.776Z,25.00
2023-04-10T08:49:59.657Z,24.25
2023-04-10T08:55:07.882Z,24.00
2023-04-10T09:00:22.463Z,23.00
2023-04-10T09:05:29.782Z,23.75
2023-04-10T09:10:34.858Z,22.00
2023-04-10T09:16:01.893Z,22.50
2023-04-10T09:21:10.153Z,22.00
2023-04-10T09:26:34.897Z,22.25
2023-04-10T09:31:40.494Z,22.50
2023-04-10T09:36:46.944Z,22.00
2023-04-10T09:41:56.576Z,22.75
2023-04-10T09:47:18.379Z,21.75
2023-04-10T09:52:24.685Z,21.00
2023-04-10T09:57:30.929Z,19.75
2023-04-10T10:02:43.658Z,20.25
2023-04-10T10:07:48.515Z,20.25
2023-04-10T10:13:01.399Z,21.00
2023-04-10T10:18:23.111Z,21.25
2023-04-10T10:23:28.753Z,19.00
2023-04-10T10:28:35.678Z,20.25
2023-04-10T10:33:41.128Z,19.00
2023-04-10T10:38:50.105Z,20.25
2023-04-10T10:44:04.051Z,21.00
2023-04-10T10:49:09.673Z,19.00
2023-04-10T10:54:30.103Z,18.50
2023-04-10T10:59:54.670Z,18.00
2023-04-10T11:04:59.799Z,18.75
2023-04-10T11:10:04.522Z,20.25
2023-04-10T11:15:10.454Z,19.00
2023-04-10T11:20:15.487Z,18.25
2023-04-10T11:25:20.189Z,17.75
2023-04-10T11:30:28.850Z,17.75
2023-04-10T11:35:34.343Z,19.50
2023-04-10T11:40:54.665Z,19.00
2023-04-10T11:46:03.762Z,20.00
2023-04-10T11:51:10.078Z,19.00
2023-04-10T11:56:18.969Z,18.75
2023-04-10T12:01:24.580Z,17.00
2023-04-10T12:06:29.978Z,14.25
2023-04-10T12:11:34.779Z,17.25
2023-04-10T12:16:40.465Z,16.50
2023-04-10T12:21:48.865Z,18.75
2023-04-10T12:26:54.078Z,15.50
2023-04-10T12:31:59.067Z,14.75
2023-04-10T12:37:05.404Z,17.00
2023-04-10T12:42:16.958Z,16.00
2023-04-10T12:47:22.019Z,16.25
2023-04-10T12:52:26.575Z,18.25
2023-04-10T12:57:33.349Z,16.75
2023-04-10T13:02:42.950Z,15.75
2023-04-10T13:07:47.748Z,18.25
2023-04-10T13:12:52.170Z,12.25
2023-04-10T13:17:56.553Z,16.25
2023-04-10T13:23:01.047Z,20.75
2023-04-10T13:28:11.756Z,16.50
2023-04-10T13:33:17.163Z,16.25
2023-04-10T13:38:21.727Z,16.00
2023-04-10T13:43:27.860Z,15.25
2023-04-10T13:48:54.522Z,17.25
2023-04-10T13:53:58.035Z,17.25
2023-04-10T13:59:05.224Z,14.00
2023-04-10T14:04:09.880Z,16.00
2023-04-10T14:09:14.687Z,14.50
2023-04-10T14:14:19.259Z,13.25
2023-04-10T14:19:23.950Z,14.00
2023-04-10T14:24:28.755Z,14.75
2023-04-10T14:29:38.859Z,13.50
2023-04-10T14:34:47.607Z,15.50
2023-04-10T14:39:52.562Z,11.75
2023-04-10T14:44:57.328Z,13.75
2023-04-10T14:50:02.191Z,13.50
2023-04-10T14:55:08.915Z,11.50
2023-04-10T15:00:14.612Z,16.00
2023-04-10T15:05:19.269Z,12.00
2023-04-10T15:10:25.095Z,13.00
2023-04-10T15:15:30.936Z,15.50
2023-04-10T15:20:35.556Z,12.00
2023-04-10T15:25:40.190Z,11.75
2023-04-10T15:30:48.106Z,11.00
2023-04-10T15:35:52.683Z,13.50
2023-04-10T15:40:57.526Z,12.75
2023-04-10T15:46:04.156Z,13.50
2023-04-10T15:51:09.288Z,13.50
2023-04-10T15:56:13.892Z,12.25
2023-04-10T16:01:18.831Z,12.25
2023-04-10T16:06:27.308Z,12.75
2023-04-10T16:11:32.254Z,13.00
2023-04-10T16:16:36.658Z,13.50
2023-04-10T16:21:41.233Z,13.50
2023-04-10T16:26:45.640Z,14.25
2023-04-10T16:31:50.100Z,8.75
2023-04-10T16:36:54.578Z,12.00
2023-04-10T16:41:59.455Z,10.50
2023-04-10T16:47:03.813Z,8.50
2023-04-10T16:52:08.388Z,12.25
2023-04-10T16:57:12.963Z,11.75
2023-04-10T17:02:17.366Z,12.00
2023-04-10T17:07:21.898Z,11.50
2023-04-10T17:12:27.572Z,10.00
2023-04-10T17:17:32.245Z,11.25
2023-04-10T17:22:37.313Z,11.00
2023-04-10T17:27:41.811Z,12.75
2023-04-10T17:32:46.446Z,9.75
2023-04-10T17:37:51.509Z,10.75
2023-04-10T17:42:55.740Z,11.25
2023-04-10T17:48:00.325Z,12.75
2023-04-10T17:53:04.888Z,9.50
2023-04-10T17:58:09.136Z,9.50
2023-04-10T18:03:13.655Z,10.25
2023-04-10T18:08:17.886Z,7.50
2023-04-10T18:13:22.457Z,9.75
2023-04-10T18:18:26.745Z,12.50
2023-04-10T18:23:32.126Z,10.75
2023-04-10T18:28:37.682Z,8.50
2023-04-10T18:33:43.290Z,9.75
2023-04-10T18:38:49.254Z,10.00
2023-04-10T18:44:04.312Z,8.75
2023-04-10T18:49:10.284Z,10.00
2023-04-10T18:54:15.155Z,9.75
2023-04-10T18:59:20.134Z,10.75
2023-04-10T19:04:25.361Z,9.25
2023-04-10T19:09:30.453Z,7.50
2023-04-10T19:14:37.453Z,10.50
2023-04-10T19:19:42.130Z,10.50
2023-04-10T19:24:48.008Z,7.00
2023-04-10T19:29:52.793Z,6.50
2023-04-10T19:34:57.845Z,9.00
2023-04-10T19:40:02.672Z,7.00
2023-04-10T19:45:07.467Z,9.50
2023-04-10T19:50:12.287Z,9.25
2023-04-10T19:55:19.155Z,10.25
2023-04-10T20:00:24.204Z,9.50
2023-04-10T20:05:29.229Z,8.25
2023-04-10T20:10:34.107Z,7.75
2023-04-10T20:15:38.981Z,9.50
2023-04-10T20:20:44.320Z,6.75
2023-04-10T20:25:49.388Z,7.00
2023-04-10T20:30:54.419Z,8.75
2023-04-10T20:35:59.221Z,7.00
2023-04-10T20:41:04.630Z,6.75
2023-04-10T20:46:12.372Z,6.25
2023-04-10T20:51:16.609Z,8.00
2023-04-10T20:56:22.646Z,5.75
2023-04-10T21:01:27.540Z,6.25
2023-04-10T21:06:34.444Z,6.50
2023-04-10T21:11:39.607Z,6.25
2023-04-10T21:16:45.067Z,6.00
2023-04-10T21:21:49.801Z,8.25
2023-04-10T21:26:55.494Z,7.00
2023-04-10T21:32:00.597Z,5.00
2023-04-10T21:37:05.433Z,8.00
2023-04-10T21:42:10.299Z,6.00
2023-04-10T21:47:15.255Z,6.50
2023-04-10T21:52:19.901Z,7.25
2023-04-10T21:57:24.849Z,6.75
2023-04-10T22:02:29.846Z,6.75
2023-04-10T22:07:34.805Z,5.00
2023-04-10T22:12:39.852Z,5.75
2023-04-10T22:17:44.947Z,10.00
2023-04-10T22:22:50.296Z,8.00
2023-04-10T22:27:55.177Z,6.75
2023-04-10T22:32:59.963Z,6.00
2023-04-10T22:38:09.926Z,7.00
2023-04-10T22:43:14.956Z,5.75
2023-04-10T22:48:20.658Z,8.00
2023-04-10T22:53:25.564Z,4.75
2023-04-10T22:58:30.552Z,4.25
2023-04-10T23:03:35.830Z,7.25
2023-04-10T23:08:40.620Z,4.75
2023-04-10T23:13:45.440Z,5.50
2023-04-10T23:18:51.315Z,5.50
2023-04-10T23:23:56.149Z,6.00
2023-04-10T23:29:01.168Z,4.25
2023-04-10T23:34:05.846Z,7.50
2023-04-10T23:39:10.548Z,5.00
2023-04-10T23:44:15.465Z,5.50
2023-04-10T23:49:20.572Z,5.75
2023-04-10T23:54:25.362Z,8.25
2023-04-10T23:59:30.308Z,5.00
